Bill Jr — WCO6976 — position and weather

sailwx.info

Track history (hours):
 
Tides and Currents Weather Stations Pressure Air Temp Water Temp Dewpoint Dewpoint Depression Visibility Wind Speed Wind Dir Waves Ship Positions

Bill Jr

Owner: DAWSON VESSELS INC, MOBILE, AL. More information available from US FCC via Universal Licensing System and Coast Guard Vessel Documentation Center.

Last reported at 2016-Jul-27 12:17 UTC. Time now 2016-Jul-29 06:01 UTC.
Position N 29°58' W 090°14'.

Length 21 m.

MMSI: 366976750.

Date/timePositionNaut miles runAvg speedWind from/ knotsBaromVisibWave heightAir tempDewpointWater temp
2016-Jul-27 12:17N 29°58' W 090°14'4 0.1
2016-Jul-26 03:32N 29°57' W 090°09'1 0.7
2016-Jul-26 02:32N 29°57' W 090°08'1 0.0
2016-Jul-25 00:26N 29°57' W 090°09'1 0.4
2016-Jul-24 22:22N 29°57' W 090°08'0 0.0
2016-Jul-24 18:30N 29°57' W 090°08'1 0.6
2016-Jul-24 17:19N 29°56' W 090°08'0 0.1
2016-Jul-24 16:32N 29°56' W 090°09'0 0.1
2016-Jul-24 15:32N 29°56' W 090°09'0 0.2
2016-Jul-24 13:17N 29°56' W 090°08'0 0.2
2016-Jul-24 12:28N 29°57' W 090°08'0 0.1
2016-Jul-24 10:22N 29°56' W 090°08'0 0.0
2016-Jul-24 08:29N 29°56' W 090°08'0 0.0
2016-Jul-24 07:33N 29°56' W 090°08'0 0.3
2016-Jul-24 06:33N 29°57' W 090°08'0 0.1
2016-Jul-24 04:28N 29°56' W 090°08'0 0.0
2016-Jul-24 03:10N 29°56' W 090°08'0 0.0
2016-Jul-24 02:24N 29°56' W 090°08'1 0.6
2016-Jul-24 01:32N 29°57' W 090°08'1 0.5
2016-Jul-24 00:32N 29°56' W 090°08'0 0.0
2016-Jul-23 23:31N 29°56' W 090°08'0 0.0
2016-Jul-23 22:33N 29°56' W 090°08'0 0.3
2016-Jul-23 21:33N 29°56' W 090°08'0 0.3
2016-Jul-23 20:33N 29°56' W 090°08'0 0.3
2016-Jul-23 19:33N 29°57' W 090°08'0 0.3
2016-Jul-23 18:29N 29°56' W 090°08'0 0.4
2016-Jul-23 17:34N 29°56' W 090°09'0 0.4
2016-Jul-23 16:33N 29°56' W 090°08'1 0.5
2016-Jul-23 15:27N 29°56' W 090°09'2 2.6
2016-Jul-23 14:33N 29°55' W 090°06'4 3.9
2016-Jul-23 13:34N 29°57' W 090°03'5 4.6
2016-Jul-23 12:33N 29°55' W 089°58'2 1.8
2016-Jul-23 11:33N 29°55' W 089°56'7 6.7
2016-Jul-23 10:34N 29°57' W 090°04'5 4.7
2016-Jul-23 09:34N 29°55' W 090°08'2 1.6
2016-Jul-23 08:32N 29°57' W 090°09'0 0.2
2016-Jul-23 06:28N 29°56' W 090°08'0 0.2
2016-Jul-23 04:31N 29°56' W 090°08'4 0.2
2016-Jul-22 01:30N 29°56' W 090°13'2 2.4
2016-Jul-22 00:27N 29°57' W 090°10'2 1.9
2016-Jul-21 23:33N 29°57' W 090°08'0 0.2
2016-Jul-21 21:33N 29°56' W 090°08'0 0.2
2016-Jul-21 20:33N 29°56' W 090°09'0 0.4
2016-Jul-21 19:24N 29°57' W 090°08'0 0.0
2016-Jul-21 18:33N 29°57' W 090°08'0 0.1
2016-Jul-21 17:17N 29°56' W 090°08'0 0.3
2016-Jul-21 16:20N 29°57' W 090°08'0 0.4
2016-Jul-21 15:28N 29°56' W 090°08'0 0.4
2016-Jul-21 14:34N 29°56' W 090°09'0 0.3
2016-Jul-21 13:32N 29°56' W 090°08'0 0.2
2016-Jul-21 12:34N 29°56' W 090°08'0 0.2
2016-Jul-21 11:30N 29°56' W 090°09'0 0.5
2016-Jul-21 10:28N 29°56' W 090°08'1 0.3
2016-Jul-21 08:26N 29°56' W 090°09'0 0.2
2016-Jul-21 06:34N 29°56' W 090°08'4 4.0
2016-Jul-21 05:34N 29°55' W 090°04'0 0.3
2016-Jul-21 04:34N 29°55' W 090°04'0 0.0
2016-Jul-21 03:34N 29°55' W 090°04'2 1.5
2016-Jul-21 02:34N 29°55' W 090°05'0 0.2
2016-Jul-21 01:33N 29°54' W 090°05'0 0.0
2016-Jul-21 00:33N 29°54' W 090°05'0 0.0
2016-Jul-20 23:29N 29°54' W 090°05'0 0.0
2016-Jul-20 22:33N 29°54' W 090°05'0 0.0
2016-Jul-20 21:33N 29°54' W 090°05'0 0.0
2016-Jul-20 20:33N 29°54' W 090°05'0 0.0
2016-Jul-20 19:29N 29°54' W 090°05'0 0.0
2016-Jul-20 18:33N 29°54' W 090°05'0 0.0
2016-Jul-20 17:33N 29°54' W 090°05'0 0.0
2016-Jul-20 16:33N 29°54' W 090°05'0 0.0
2016-Jul-20 15:33N 29°54' W 090°05'0 0.0
2016-Jul-20 14:33N 29°54' W 090°05'0 0.0
2016-Jul-20 13:33N 29°54' W 090°05'0 0.0
2016-Jul-20 12:33N 29°54' W 090°05'0 0.0
2016-Jul-20 11:33N 29°54' W 090°05'0 0.0
2016-Jul-20 10:33N 29°54' W 090°05'0 0.0
2016-Jul-20 09:34N 29°54' W 090°05'0 0.0
2016-Jul-20 08:33N 29°54' W 090°05'0 0.0
2016-Jul-20 07:33N 29°54' W 090°05'0 0.0
2016-Jul-20 06:34N 29°54' W 090°05'0 0.0
2016-Jul-20 05:33N 29°54' W 090°05'0 0.0
2016-Jul-20 04:33N 29°54' W 090°05'0 0.0
2016-Jul-20 03:33N 29°54' W 090°05'0 0.0
2016-Jul-20 02:33N 29°54' W 090°05'0 0.0
2016-Jul-20 01:33N 29°54' W 090°05'0 0.0
2016-Jul-20 00:33N 29°54' W 090°05'0 0.0
2016-Jul-19 23:33N 29°54' W 090°05'0 0.0
2016-Jul-19 22:33N 29°54' W 090°05'0 0.0
2016-Jul-19 21:33N 29°54' W 090°05'0 0.0
2016-Jul-19 20:33N 29°54' W 090°05'0 0.0
2016-Jul-19 19:33N 29°54' W 090°05'0 0.0
2016-Jul-19 18:33N 29°54' W 090°05'0 0.0
2016-Jul-19 17:33N 29°54' W 090°05'0 0.0
2016-Jul-19 16:33N 29°54' W 090°05'0 0.0
2016-Jul-19 15:33N 29°54' W 090°05'0 0.0
2016-Jul-19 14:33N 29°54' W 090°05'0 0.0
2016-Jul-19 13:33N 29°54' W 090°05'0 0.0
2016-Jul-19 12:32N 29°54' W 090°05'0 0.0
2016-Jul-19 11:33N 29°54' W 090°05'0 0.0
2016-Jul-19 10:33N 29°54' W 090°05'0 0.0
2016-Jul-19 09:33N 29°54' W 090°05'0 0.0
2016-Jul-19 08:33N 29°54' W 090°05'0 0.0
2016-Jul-19 07:33N 29°54' W 090°05'0 0.0
2016-Jul-19 04:33N 29°54' W 090°05'0 0.0
2016-Jul-19 03:33N 29°54' W 090°05'0 0.0
2016-Jul-19 02:33N 29°54' W 090°05'0 0.0
2016-Jul-19 01:33N 29°54' W 090°05'0 0.0
2016-Jul-19 00:33N 29°54' W 090°05'0 0.0
2016-Jul-18 23:32N 29°54' W 090°05'0 0.0
2016-Jul-18 22:33N 29°54' W 090°05'0 0.0
2016-Jul-18 21:33N 29°54' W 090°05'0 0.0
2016-Jul-18 20:33N 29°54' W 090°05'0 0.0
2016-Jul-18 19:33N 29°54' W 090°05'0 0.0
2016-Jul-18 18:33N 29°54' W 090°05'0 0.0
2016-Jul-18 17:33N 29°54' W 090°05'0 0.0
2016-Jul-18 16:33N 29°54' W 090°05'0 0.0
2016-Jul-18 15:33N 29°54' W 090°05'0 0.0
2016-Jul-18 14:33N 29°54' W 090°05'0 0.0
2016-Jul-18 13:33N 29°54' W 090°05'0 0.0
2016-Jul-18 04:33N 29°54' W 090°05'0 0.0
2016-Jul-18 03:33N 29°54' W 090°05'0 0.0
2016-Jul-18 02:33N 29°54' W 090°05'0 0.0
2016-Jul-18 01:33N 29°54' W 090°05'0 0.0
2016-Jul-18 00:33N 29°54' W 090°05'0 0.0
2016-Jul-17 23:33N 29°54' W 090°05'0 0.0
2016-Jul-17 22:33N 29°54' W 090°05'0 0.0
2016-Jul-17 21:33N 29°54' W 090°05'0 0.0
2016-Jul-17 20:33N 29°54' W 090°05'0 0.0
2016-Jul-17 19:33N 29°54' W 090°05'0 0.0
2016-Jul-17 18:33N 29°54' W 090°05'0 0.0
2016-Jul-17 17:33N 29°54' W 090°05'0 0.0
2016-Jul-17 16:33N 29°54' W 090°05'0 0.0
2016-Jul-17 15:33N 29°54' W 090°05'0 0.0
2016-Jul-17 14:33N 29°54' W 090°05'0 0.0
2016-Jul-17 13:33N 29°54' W 090°05'0 0.0
2016-Jul-17 12:33N 29°54' W 090°05'  
Track history (hours):
 
Tides and Currents Weather Stations Pressure Air Temp Water Temp Dewpoint Dewpoint Depression Visibility Wind Speed Wind Dir Waves Ship Positions

Bill Jr

Owner: DAWSON VESSELS INC, MOBILE, AL. More information available from US FCC via Universal Licensing System and Coast Guard Vessel Documentation Center.

Last reported at 2016-Jul-27 12:17 UTC. Time now 2016-Jul-29 06:01 UTC.
Position N 29°58' W 090°14'.

Length 21 m.

MMSI: 366976750.

Date/timePositionNaut miles runAvg speedWind from/ knotsBaromVisibWave heightAir tempDewpointWater temp
2016-Jul-27 12:17N 29°58' W 090°14'4 0.1
2016-Jul-26 03:32N 29°57' W 090°09'1 0.7
2016-Jul-26 02:32N 29°57' W 090°08'1 0.0
2016-Jul-25 00:26N 29°57' W 090°09'1 0.4
2016-Jul-24 22:22N 29°57' W 090°08'0 0.0
2016-Jul-24 18:30N 29°57' W 090°08'1 0.6
2016-Jul-24 17:19N 29°56' W 090°08'0 0.1
2016-Jul-24 16:32N 29°56' W 090°09'0 0.1
2016-Jul-24 15:32N 29°56' W 090°09'0 0.2
2016-Jul-24 13:17N 29°56' W 090°08'0 0.2
2016-Jul-24 12:28N 29°57' W 090°08'0 0.1
2016-Jul-24 10:22N 29°56' W 090°08'0 0.0
2016-Jul-24 08:29N 29°56' W 090°08'0 0.0
2016-Jul-24 07:33N 29°56' W 090°08'0 0.3
2016-Jul-24 06:33N 29°57' W 090°08'0 0.1
2016-Jul-24 04:28N 29°56' W 090°08'0 0.0
2016-Jul-24 03:10N 29°56' W 090°08'0 0.0
2016-Jul-24 02:24N 29°56' W 090°08'1 0.6
2016-Jul-24 01:32N 29°57' W 090°08'1 0.5
2016-Jul-24 00:32N 29°56' W 090°08'0 0.0
2016-Jul-23 23:31N 29°56' W 090°08'0 0.0
2016-Jul-23 22:33N 29°56' W 090°08'0 0.3
2016-Jul-23 21:33N 29°56' W 090°08'0 0.3
2016-Jul-23 20:33N 29°56' W 090°08'0 0.3
2016-Jul-23 19:33N 29°57' W 090°08'0 0.3
2016-Jul-23 18:29N 29°56' W 090°08'0 0.4
2016-Jul-23 17:34N 29°56' W 090°09'0 0.4
2016-Jul-23 16:33N 29°56' W 090°08'1 0.5
2016-Jul-23 15:27N 29°56' W 090°09'2 2.6
2016-Jul-23 14:33N 29°55' W 090°06'4 3.9
2016-Jul-23 13:34N 29°57' W 090°03'5 4.6
2016-Jul-23 12:33N 29°55' W 089°58'2 1.8
2016-Jul-23 11:33N 29°55' W 089°56'7 6.7
2016-Jul-23 10:34N 29°57' W 090°04'5 4.7
2016-Jul-23 09:34N 29°55' W 090°08'2 1.6
2016-Jul-23 08:32N 29°57' W 090°09'0 0.2
2016-Jul-23 06:28N 29°56' W 090°08'0 0.2
2016-Jul-23 04:31N 29°56' W 090°08'4 0.2
2016-Jul-22 01:30N 29°56' W 090°13'2 2.4
2016-Jul-22 00:27N 29°57' W 090°10'2 1.9
2016-Jul-21 23:33N 29°57' W 090°08'0 0.2
2016-Jul-21 21:33N 29°56' W 090°08'0 0.2
2016-Jul-21 20:33N 29°56' W 090°09'0 0.4
2016-Jul-21 19:24N 29°57' W 090°08'0 0.0
2016-Jul-21 18:33N 29°57' W 090°08'0 0.1
2016-Jul-21 17:17N 29°56' W 090°08'0 0.3
2016-Jul-21 16:20N 29°57' W 090°08'0 0.4
2016-Jul-21 15:28N 29°56' W 090°08'0 0.4
2016-Jul-21 14:34N 29°56' W 090°09'0 0.3
2016-Jul-21 13:32N 29°56' W 090°08'0 0.2
2016-Jul-21 12:34N 29°56' W 090°08'0 0.2
2016-Jul-21 11:30N 29°56' W 090°09'0 0.5
2016-Jul-21 10:28N 29°56' W 090°08'1 0.3
2016-Jul-21 08:26N 29°56' W 090°09'0 0.2
2016-Jul-21 06:34N 29°56' W 090°08'4 4.0
2016-Jul-21 05:34N 29°55' W 090°04'0 0.3
2016-Jul-21 04:34N 29°55' W 090°04'0 0.0
2016-Jul-21 03:34N 29°55' W 090°04'2 1.5
2016-Jul-21 02:34N 29°55' W 090°05'0 0.2
2016-Jul-21 01:33N 29°54' W 090°05'0 0.0
2016-Jul-21 00:33N 29°54' W 090°05'0 0.0
2016-Jul-20 23:29N 29°54' W 090°05'0 0.0
2016-Jul-20 22:33N 29°54' W 090°05'0 0.0
2016-Jul-20 21:33N 29°54' W 090°05'0 0.0
2016-Jul-20 20:33N 29°54' W 090°05'0 0.0
2016-Jul-20 19:29N 29°54' W 090°05'0 0.0
2016-Jul-20 18:33N 29°54' W 090°05'0 0.0
2016-Jul-20 17:33N 29°54' W 090°05'0 0.0
2016-Jul-20 16:33N 29°54' W 090°05'0 0.0
2016-Jul-20 15:33N 29°54' W 090°05'0 0.0
2016-Jul-20 14:33N 29°54' W 090°05'0 0.0
2016-Jul-20 13:33N 29°54' W 090°05'0 0.0
2016-Jul-20 12:33N 29°54' W 090°05'0 0.0
2016-Jul-20 11:33N 29°54' W 090°05'0 0.0
2016-Jul-20 10:33N 29°54' W 090°05'0 0.0
2016-Jul-20 09:34N 29°54' W 090°05'0 0.0
2016-Jul-20 08:33N 29°54' W 090°05'0 0.0
2016-Jul-20 07:33N 29°54' W 090°05'0 0.0
2016-Jul-20 06:34N 29°54' W 090°05'0 0.0
2016-Jul-20 05:33N 29°54' W 090°05'0 0.0
2016-Jul-20 04:33N 29°54' W 090°05'0 0.0
2016-Jul-20 03:33N 29°54' W 090°05'0 0.0
2016-Jul-20 02:33N 29°54' W 090°05'0 0.0
2016-Jul-20 01:33N 29°54' W 090°05'0 0.0
2016-Jul-20 00:33N 29°54' W 090°05'0 0.0
2016-Jul-19 23:33N 29°54' W 090°05'0 0.0
2016-Jul-19 22:33N 29°54' W 090°05'0 0.0
2016-Jul-19 21:33N 29°54' W 090°05'0 0.0
2016-Jul-19 20:33N 29°54' W 090°05'0 0.0
2016-Jul-19 19:33N 29°54' W 090°05'0 0.0
2016-Jul-19 18:33N 29°54' W 090°05'0 0.0
2016-Jul-19 17:33N 29°54' W 090°05'0 0.0
2016-Jul-19 16:33N 29°54' W 090°05'0 0.0
2016-Jul-19 15:33N 29°54' W 090°05'0 0.0
2016-Jul-19 14:33N 29°54' W 090°05'0 0.0
2016-Jul-19 13:33N 29°54' W 090°05'0 0.0
2016-Jul-19 12:32N 29°54' W 090°05'0 0.0
2016-Jul-19 11:33N 29°54' W 090°05'0 0.0
2016-Jul-19 10:33N 29°54' W 090°05'0 0.0
2016-Jul-19 09:33N 29°54' W 090°05'0 0.0
2016-Jul-19 08:33N 29°54' W 090°05'0 0.0
2016-Jul-19 07:33N 29°54' W 090°05'0 0.0
2016-Jul-19 04:33N 29°54' W 090°05'0 0.0
2016-Jul-19 03:33N 29°54' W 090°05'0 0.0
2016-Jul-19 02:33N 29°54' W 090°05'0 0.0
2016-Jul-19 01:33N 29°54' W 090°05'0 0.0
2016-Jul-19 00:33N 29°54' W 090°05'0 0.0
2016-Jul-18 23:32N 29°54' W 090°05'0 0.0
2016-Jul-18 22:33N 29°54' W 090°05'0 0.0
2016-Jul-18 21:33N 29°54' W 090°05'0 0.0
2016-Jul-18 20:33N 29°54' W 090°05'0 0.0
2016-Jul-18 19:33N 29°54' W 090°05'0 0.0
2016-Jul-18 18:33N 29°54' W 090°05'0 0.0
2016-Jul-18 17:33N 29°54' W 090°05'0 0.0
2016-Jul-18 16:33N 29°54' W 090°05'0 0.0
2016-Jul-18 15:33N 29°54' W 090°05'0 0.0
2016-Jul-18 14:33N 29°54' W 090°05'0 0.0
2016-Jul-18 13:33N 29°54' W 090°05'0 0.0
2016-Jul-18 04:33N 29°54' W 090°05'0 0.0
2016-Jul-18 03:33N 29°54' W 090°05'0 0.0
2016-Jul-18 02:33N 29°54' W 090°05'0 0.0
2016-Jul-18 01:33N 29°54' W 090°05'0 0.0
2016-Jul-18 00:33N 29°54' W 090°05'0 0.0
2016-Jul-17 23:33N 29°54' W 090°05'0 0.0
2016-Jul-17 22:33N 29°54' W 090°05'0 0.0
2016-Jul-17 21:33N 29°54' W 090°05'0 0.0
2016-Jul-17 20:33N 29°54' W 090°05'0 0.0
2016-Jul-17 19:33N 29°54' W 090°05'0 0.0
2016-Jul-17 18:33N 29°54' W 090°05'0 0.0
2016-Jul-17 17:33N 29°54' W 090°05'0 0.0
2016-Jul-17 16:33N 29°54' W 090°05'0 0.0
2016-Jul-17 15:33N 29°54' W 090°05'0 0.0
2016-Jul-17 14:33N 29°54' W 090°05'0 0.0
2016-Jul-17 13:33N 29°54' W 090°05'0 0.0
2016-Jul-17 12:33N 29°54' W 090°05'  

Dump ship's entire track history